createdAt,value
2022-09-03T00:00:37.978Z,22.67
2022-09-03T00:03:27.253Z,22.61
2022-09-03T00:06:06.981Z,22.66
2022-09-03T00:08:43.676Z,22.71
2022-09-03T00:11:32.857Z,22.65
2022-09-03T00:14:16.308Z,22.63
2022-09-03T00:17:03.968Z,22.46
2022-09-03T00:19:33.984Z,22.44
2022-09-03T00:22:07.937Z,22.16
2022-09-03T00:24:37.499Z,22.23
2022-09-03T00:27:11.963Z,22.26
2022-09-03T00:29:43.549Z,22.23
2022-09-03T00:32:18.714Z,21.87
2022-09-03T00:34:51.214Z,21.90
2022-09-03T00:37:18.469Z,22.17
2022-09-03T00:39:46.215Z,22.31
2022-09-03T00:42:34.844Z,22.28
2022-09-03T00:45:22.543Z,22.06
2022-09-03T00:48:06.294Z,21.98
2022-09-03T00:50:51.187Z,21.98
2022-09-03T00:53:30.663Z,22.00
2022-09-03T00:56:19.502Z,22.18
2022-09-03T00:58:59.045Z,22.11
2022-09-03T01:01:48.463Z,22.11
2022-09-03T01:04:34.495Z,22.11
2022-09-03T01:07:13.077Z,22.14
2022-09-03T01:09:54.443Z,22.05
2022-09-03T01:12:55.778Z,22.05
2022-09-03T01:15:41.298Z,22.02
2022-09-03T01:18:11.372Z,22.06
2022-09-03T01:20:46.077Z,21.90
2022-09-03T01:23:37.912Z,22.02
2022-09-03T01:26:33.993Z,22.05
2022-09-03T01:29:31.723Z,22.08
2022-09-03T01:32:07.870Z,22.05
2022-09-03T01:34:50.209Z,22.08
2022-09-03T01:37:27.844Z,22.07
2022-09-03T01:40:13.637Z,22.05
2022-09-03T01:43:03.026Z,22.06
2022-09-03T01:45:50.188Z,22.06
2022-09-03T01:48:41.078Z,21.98
2022-09-03T01:51:21.045Z,21.99
2022-09-03T01:54:27.385Z,21.92
2022-09-03T01:57:34.579Z,21.73
2022-09-03T02:00:13.742Z,21.94
2022-09-03T02:02:43.441Z,21.81
2022-09-03T02:05:14.882Z,21.80
2022-09-03T02:07:44.817Z,21.79
2022-09-03T02:10:15.243Z,21.78
2022-09-03T02:12:50.006Z,21.81
2022-09-03T02:15:19.360Z,21.78
2022-09-03T02:17:48.869Z,21.73
2022-09-03T02:20:23.023Z,21.76
2022-09-03T02:22:50.853Z,21.55
2022-09-03T02:25:18.188Z,21.58
2022-09-03T02:27:45.811Z,21.59
2022-09-03T02:30:13.102Z,21.45
2022-09-03T02:32:40.386Z,21.48
2022-09-03T02:35:08.198Z,21.27
2022-09-03T02:37:35.552Z,21.34
2022-09-03T02:40:06.851Z,21.29
2022-09-03T02:42:34.844Z,21.37
2022-09-03T02:45:14.406Z,21.27
2022-09-03T02:47:44.617Z,21.39
2022-09-03T02:50:11.929Z,21.38
2022-09-03T02:52:39.163Z,21.27
2022-09-03T02:55:08.107Z,21.41
2022-09-03T02:57:35.395Z,21.47
2022-09-03T03:00:03.072Z,21.59
2022-09-03T03:02:30.484Z,21.68
2022-09-03T03:04:57.746Z,21.56
2022-09-03T03:07:25.972Z,21.49
2022-09-03T03:09:53.229Z,21.52
2022-09-03T03:12:21.471Z,21.44
2022-09-03T03:14:48.835Z,21.43
2022-09-03T03:17:16.081Z,21.49
2022-09-03T03:19:43.447Z,21.48
2022-09-03T03:22:10.715Z,21.43
2022-09-03T03:24:38.169Z,21.57
2022-09-03T03:27:07.227Z,21.48
2022-09-03T03:29:35.125Z,21.22
2022-09-03T03:32:02.777Z,21.19
2022-09-03T03:34:30.001Z,21.30
2022-09-03T03:36:57.262Z,21.17
2022-09-03T03:39:24.539Z,21.24
2022-09-03T03:41:52.560Z,21.29
2022-09-03T03:44:20.436Z,21.36
2022-09-03T03:46:47.817Z,21.43
2022-09-03T03:49:14.995Z,21.41
2022-09-03T03:51:42.295Z,21.38
2022-09-03T03:54:09.667Z,21.36
2022-09-03T03:56:37.086Z,21.32
2022-09-03T03:59:04.723Z,21.25
2022-09-03T04:01:32.580Z,21.36
2022-09-03T04:04:00.376Z,21.40
2022-09-03T04:06:28.782Z,21.21
2022-09-03T04:08:56.078Z,21.37
2022-09-03T04:11:24.241Z,21.36
2022-09-03T04:13:51.904Z,21.35
2022-09-03T04:16:22.016Z,21.55
2022-09-03T04:18:49.585Z,21.50
2022-09-03T04:21:19.708Z,21.52
2022-09-03T04:23:47.956Z,21.41
2022-09-03T04:26:18.032Z,21.27
2022-09-03T04:28:45.592Z,21.37
2022-09-03T04:31:15.437Z,21.08
2022-09-03T04:33:43.291Z,21.23
2022-09-03T04:36:12.857Z,21.28
2022-09-03T04:38:41.924Z,21.37
2022-09-03T04:41:11.358Z,21.29
2022-09-03T04:43:39.022Z,21.43
2022-09-03T04:46:10.857Z,21.43
2022-09-03T04:48:44.096Z,21.17
2022-09-03T04:51:13.767Z,21.11
2022-09-03T04:53:43.653Z,21.27
2022-09-03T04:56:22.285Z,21.20
2022-09-03T04:58:55.048Z,21.29
2022-09-03T05:01:23.929Z,21.20
2022-09-03T05:03:52.355Z,21.09
2022-09-03T05:06:20.530Z,21.35
2022-09-03T05:08:48.904Z,21.36
2022-09-03T05:11:17.862Z,21.35
2022-09-03T05:13:51.363Z,20.99
2022-09-03T05:16:19.467Z,21.14
2022-09-03T05:18:48.176Z,21.05
2022-09-03T05:21:17.973Z,20.99
2022-09-03T05:23:46.945Z,21.16
2022-09-03T05:26:19.695Z,21.04
2022-09-03T05:28:47.803Z,20.91
2022-09-03T05:31:17.752Z,20.99
2022-09-03T05:33:47.085Z,21.01
2022-09-03T05:36:19.487Z,21.15
2022-09-03T05:38:50.155Z,20.96
2022-09-03T05:41:19.036Z,21.00
2022-09-03T05:43:58.923Z,21.13
2022-09-03T05:46:32.665Z,21.16
2022-09-03T05:49:05.410Z,21.08
2022-09-03T05:51:33.928Z,20.96
2022-09-03T05:54:02.023Z,21.06
2022-09-03T05:56:30.901Z,21.07
2022-09-03T05:59:03.442Z,21.23
2022-09-03T06:01:33.134Z,21.16
2022-09-03T06:04:05.408Z,21.08
2022-09-03T06:06:35.705Z,21.17
2022-09-03T06:09:05.770Z,21.27
2022-09-03T06:11:35.475Z,21.31
2022-09-03T06:14:05.800Z,21.43
2022-09-03T06:16:35.594Z,21.36
2022-09-03T06:19:03.757Z,21.39
2022-09-03T06:21:30.975Z,21.40
2022-09-03T06:23:59.719Z,21.36
2022-09-03T06:26:28.703Z,21.30
2022-09-03T06:28:57.429Z,21.39
2022-09-03T06:31:25.716Z,21.50
2022-09-03T06:33:55.060Z,21.47
2022-09-03T06:36:24.309Z,21.56
2022-09-03T06:38:53.367Z,21.60
2022-09-03T06:41:26.114Z,21.43
2022-09-03T06:44:04.282Z,21.50
2022-09-03T06:46:33.359Z,21.43
2022-09-03T06:49:00.888Z,21.46
2022-09-03T06:51:30.110Z,21.43
2022-09-03T06:54:04.391Z,21.36
2022-09-03T06:56:37.395Z,21.45
2022-09-03T06:59:11.985Z,21.54
2022-09-03T07:01:43.587Z,21.66
2022-09-03T07:04:13.195Z,21.57
2022-09-03T07:06:42.503Z,21.62
2022-09-03T07:09:11.586Z,21.58
2022-09-03T07:11:46.717Z,21.38
2022-09-03T07:14:14.948Z,21.22
2022-09-03T07:16:43.454Z,21.34
2022-09-03T07:19:10.936Z,21.50
2022-09-03T07:21:38.246Z,21.56
2022-09-03T07:24:06.223Z,21.49
2022-09-03T07:26:39.131Z,21.43
2022-09-03T07:29:07.917Z,21.51
2022-09-03T07:31:38.381Z,21.61
2022-09-03T07:34:09.904Z,21.81
2022-09-03T07:36:42.725Z,21.72
2022-09-03T07:39:14.126Z,21.69
2022-09-03T07:41:46.118Z,21.78
2022-09-03T07:44:15.436Z,21.96
2022-09-03T07:46:43.679Z,21.83
2022-09-03T07:49:13.305Z,21.85
2022-09-03T07:51:40.747Z,22.06
2022-09-03T07:54:11.263Z,22.14
2022-09-03T07:56:40.372Z,22.29
2022-09-03T07:59:08.344Z,22.43
2022-09-03T08:01:36.456Z,22.51
2022-09-03T08:04:04.819Z,22.54
2022-09-03T08:06:38.001Z,22.52
2022-09-03T08:09:07.307Z,22.66
2022-09-03T08:11:37.884Z,22.65
2022-09-03T08:14:07.812Z,22.78
2022-09-03T08:16:37.819Z,22.92
2022-09-03T08:19:05.494Z,23.09
2022-09-03T08:21:33.016Z,23.13
2022-09-03T08:24:02.966Z,23.22
2022-09-03T08:26:31.892Z,23.16
2022-09-03T08:28:59.775Z,23.16
2022-09-03T08:31:29.256Z,23.38
2022-09-03T08:33:58.692Z,23.47
2022-09-03T08:36:30.067Z,23.31
2022-09-03T08:38:59.482Z,23.33
2022-09-03T08:41:42.530Z,23.63
2022-09-03T08:44:28.698Z,23.74
2022-09-03T08:47:41.660Z,23.78
2022-09-03T08:50:15.744Z,23.83
2022-09-03T08:52:49.222Z,23.72
2022-09-03T08:55:22.244Z,23.78
2022-09-03T08:58:10.839Z,23.72
2022-09-03T09:00:54.054Z,23.88
2022-09-03T09:03:39.639Z,23.96
2022-09-03T09:06:34.731Z,24.24
2022-09-03T09:09:10.936Z,24.16
2022-09-03T09:12:05.829Z,24.15
2022-09-03T09:14:34.110Z,24.31
2022-09-03T09:17:32.510Z,24.24
2022-09-03T09:20:12.046Z,24.28
2022-09-03T09:22:47.245Z,24.26
2022-09-03T09:25:23.432Z,24.30
2022-09-03T09:28:25.086Z,24.38
2022-09-03T09:30:55.792Z,24.25
2022-09-03T09:33:24.321Z,24.28
2022-09-03T09:35:51.534Z,24.24
2022-09-03T09:38:31.517Z,24.29
2022-09-03T09:41:13.034Z,24.24
2022-09-03T09:43:40.821Z,24.10
2022-09-03T09:46:20.228Z,23.93
2022-09-03T09:48:53.211Z,23.93
2022-09-03T09:51:26.274Z,24.00
2022-09-03T09:54:08.827Z,24.01
2022-09-03T09:56:36.600Z,23.92
2022-09-03T09:59:05.498Z,23.89
2022-09-03T10:01:33.148Z,23.86
2022-09-03T10:04:11.821Z,24.06
2022-09-03T10:06:54.471Z,24.06
2022-09-03T10:09:30.825Z,24.02
2022-09-03T10:12:23.376Z,24.11
2022-09-03T10:15:00.014Z,24.19
2022-09-03T10:17:37.331Z,24.15
2022-09-03T10:20:30.098Z,24.02
2022-09-03T10:23:11.990Z,24.08
2022-09-03T10:26:07.377Z,24.20
2022-09-03T10:28:43.052Z,24.24
2022-09-03T10:31:30.149Z,24.41
2022-09-03T10:34:06.735Z,24.38
2022-09-03T10:36:38.112Z,24.20
2022-09-03T10:39:11.872Z,24.21
2022-09-03T10:41:54.739Z,24.23
2022-09-03T10:45:01.726Z,24.20
2022-09-03T10:47:38.267Z,24.37
2022-09-03T10:50:17.945Z,24.26
2022-09-03T10:53:12.872Z,24.28
2022-09-03T10:56:00.666Z,24.20
2022-09-03T10:58:33.930Z,24.26
2022-09-03T11:01:10.833Z,24.33
2022-09-03T11:03:48.701Z,24.44
2022-09-03T11:06:21.065Z,24.44
2022-09-03T11:09:08.412Z,24.38
2022-09-03T11:11:41.916Z,24.44
2022-09-03T11:14:11.240Z,24.64
2022-09-03T11:16:42.984Z,24.67
2022-09-03T11:19:15.656Z,24.65
2022-09-03T11:21:44.173Z,24.69
2022-09-03T11:24:23.463Z,24.89
2022-09-03T11:26:55.285Z,24.95
2022-09-03T11:29:36.801Z,24.98
2022-09-03T11:32:21.851Z,25.30
2022-09-03T11:34:51.602Z,25.22
2022-09-03T11:37:18.994Z,25.11
2022-09-03T11:40:08.776Z,24.90
2022-09-03T11:42:41.815Z,25.00
2022-09-03T11:45:22.668Z,25.12
2022-09-03T11:47:51.390Z,25.24
2022-09-03T11:50:27.675Z,25.51
2022-09-03T11:53:09.556Z,25.49
2022-09-03T11:56:04.793Z,25.36
2022-09-03T11:58:36.998Z,25.35
2022-09-03T12:01:16.473Z,25.44
2022-09-03T12:03:46.991Z,25.62
2022-09-03T12:06:33.054Z,25.59
2022-09-03T12:09:18.441Z,25.55
2022-09-03T12:12:00.549Z,25.40
2022-09-03T12:14:48.040Z,25.56
2022-09-03T12:17:18.436Z,25.53
2022-09-03T12:19:52.089Z,25.30
2022-09-03T12:22:21.757Z,25.39
2022-09-03T12:24:50.766Z,25.49
2022-09-03T12:27:27.121Z,25.33
2022-09-03T12:30:03.439Z,25.38
2022-09-03T12:32:37.036Z,25.23
2022-09-03T12:38:08.446Z,25.18
2022-09-03T12:41:23.501Z,25.44
2022-09-03T12:43:38.780Z,25.31
2022-09-03T12:46:14.575Z,25.37
2022-09-03T12:52:05.819Z,25.11
2022-09-03T12:54:36.259Z,25.25
2022-09-03T12:57:03.778Z,25.29
2022-09-03T12:59:33.376Z,25.44
2022-09-03T13:02:05.850Z,25.33
2022-09-03T13:04:35.767Z,25.43
2022-09-03T13:07:07.157Z,25.49
2022-09-03T13:09:36.694Z,25.53
2022-09-03T13:12:07.380Z,25.68
2022-09-03T13:14:45.258Z,25.63
2022-09-03T13:17:44.871Z,25.48
2022-09-03T13:20:20.486Z,25.70
2022-09-03T13:23:08.076Z,25.68
2022-09-03T13:25:48.999Z,25.56
2022-09-03T13:28:28.721Z,25.60
2022-09-03T13:31:05.268Z,25.73
2022-09-03T13:33:38.424Z,25.95
2022-09-03T13:36:17.763Z,25.89
2022-09-03T13:39:06.160Z,25.98
2022-09-03T13:41:54.173Z,25.43
2022-09-03T13:44:23.990Z,25.11
2022-09-03T13:47:07.908Z,24.79
2022-09-03T13:50:01.640Z,24.53
2022-09-03T13:52:43.022Z,24.20
2022-09-03T13:55:19.974Z,24.53
2022-09-03T13:57:58.360Z,24.40
2022-09-03T14:00:44.466Z,24.02
2022-09-03T14:03:17.897Z,23.95
2022-09-03T14:06:00.342Z,23.70
2022-09-03T14:08:54.394Z,23.60
2022-09-03T14:11:54.252Z,23.94
2022-09-03T14:15:01.392Z,24.26
2022-09-03T14:17:43.017Z,24.18
2022-09-03T14:20:16.745Z,23.85
2022-09-03T14:22:44.018Z,23.58
2022-09-03T14:25:16.022Z,24.00
2022-09-03T14:27:43.583Z,23.62
2022-09-03T14:30:16.853Z,24.03
2022-09-03T14:33:03.292Z,24.14
2022-09-03T14:35:44.870Z,24.30
2022-09-03T14:38:41.322Z,24.24
2022-09-03T14:41:16.869Z,24.31
2022-09-03T14:44:09.759Z,24.64
2022-09-03T14:46:39.652Z,24.62
2022-09-03T14:49:17.814Z,24.91
2022-09-03T14:51:49.730Z,24.80
2022-09-03T14:54:42.987Z,24.63
2022-09-03T14:57:25.075Z,24.47
2022-09-03T15:00:07.569Z,24.78
2022-09-03T15:03:08.797Z,24.43
2022-09-03T15:05:48.679Z,24.43
2022-09-03T15:08:16.112Z,24.68
2022-09-03T15:10:55.865Z,24.39
2022-09-03T15:13:36.270Z,24.73
2022-09-03T15:16:18.560Z,25.02
2022-09-03T15:18:58.673Z,25.23
2022-09-03T15:21:29.369Z,25.29
2022-09-03T15:24:03.835Z,25.44
2022-09-03T15:26:56.321Z,25.09
2022-09-03T15:29:46.002Z,25.22
2022-09-03T15:32:19.448Z,25.53
2022-09-03T15:35:05.293Z,25.46
2022-09-03T15:37:38.587Z,25.62
2022-09-03T15:40:11.003Z,25.78
2022-09-03T15:42:39.021Z,25.58
2022-09-03T15:45:16.966Z,25.48
2022-09-03T15:47:54.314Z,25.52
2022-09-03T15:50:48.203Z,25.73
2022-09-03T15:53:36.180Z,25.50
2022-09-03T15:56:15.417Z,25.58
2022-09-03T15:58:48.304Z,25.52
2022-09-03T16:01:35.631Z,25.72
2022-09-03T16:04:09.809Z,25.64
2022-09-03T16:06:43.401Z,25.73
2022-09-03T16:09:25.741Z,25.82
2022-09-03T16:12:10.034Z,25.61
2022-09-03T16:14:47.233Z,25.75
2022-09-03T16:17:33.065Z,25.80
2022-09-03T16:20:07.848Z,25.70
2022-09-03T16:23:04.828Z,25.76
2022-09-03T16:25:35.818Z,25.79
2022-09-03T16:28:14.831Z,25.39
2022-09-03T16:31:15.325Z,25.20
2022-09-03T16:33:46.197Z,25.24
2022-09-03T16:36:35.352Z,25.18
2022-09-03T16:39:27.153Z,25.34
2022-09-03T16:42:22.123Z,25.40
2022-09-03T16:45:07.300Z,25.35
2022-09-03T16:47:54.124Z,25.46
2022-09-03T16:50:35.262Z,25.25
2022-09-03T16:53:34.943Z,25.01
2022-09-03T16:56:27.372Z,24.98
2022-09-03T16:59:05.892Z,25.17
2022-09-03T17:01:36.308Z,25.22
2022-09-03T17:04:30.182Z,25.33
2022-09-03T17:07:18.786Z,25.31
2022-09-03T17:10:19.722Z,25.26
2022-09-03T17:13:06.698Z,25.21
2022-09-03T17:15:44.758Z,25.29
2022-09-03T17:18:24.449Z,25.19
2022-09-03T17:21:13.128Z,25.19
2022-09-03T17:24:08.181Z,25.11
2022-09-03T17:27:03.931Z,25.18
2022-09-03T17:29:38.466Z,25.17
2022-09-03T17:32:21.206Z,25.10
2022-09-03T17:35:32.913Z,24.92
2022-09-03T17:38:15.129Z,25.00
2022-09-03T17:40:55.375Z,25.15
2022-09-03T17:43:41.175Z,25.09
2022-09-03T17:46:11.972Z,25.00
2022-09-03T17:48:54.937Z,25.04
2022-09-03T17:51:22.183Z,25.09
2022-09-03T17:53:53.553Z,24.98
2022-09-03T17:56:23.695Z,24.99
2022-09-03T17:59:09.406Z,24.84
2022-09-03T18:01:39.485Z,24.84
2022-09-03T18:04:29.918Z,24.88
2022-09-03T18:07:08.552Z,24.94
2022-09-03T18:09:41.197Z,25.02
2022-09-03T18:12:28.134Z,24.91
2022-09-03T18:15:08.145Z,24.85
2022-09-03T18:17:59.911Z,24.90
2022-09-03T18:20:58.822Z,24.89
2022-09-03T18:24:02.626Z,24.78
2022-09-03T18:26:52.457Z,24.66
2022-09-03T18:29:54.492Z,24.64
2022-09-03T18:32:40.416Z,24.62
2022-09-03T18:35:27.420Z,24.62
2022-09-03T18:38:13.434Z,24.79
2022-09-03T18:41:12.661Z,24.69
2022-09-03T18:44:05.556Z,24.43
2022-09-03T18:48:02.130Z,24.64
2022-09-03T18:50:14.896Z,24.50
2022-09-03T18:53:13.460Z,24.49
2022-09-03T18:56:09.033Z,24.41
2022-09-03T18:59:14.572Z,24.35
2022-09-03T19:02:01.743Z,24.41
2022-09-03T19:05:17.939Z,24.28
2022-09-03T19:08:20.609Z,24.33
2022-09-03T19:11:14.346Z,24.40
2022-09-03T19:14:01.456Z,24.31
2022-09-03T19:17:19.775Z,24.22
2022-09-03T19:20:43.172Z,24.24
2022-09-03T19:23:29.170Z,24.28
2022-09-03T19:26:30.441Z,24.24
2022-09-03T19:29:20.995Z,24.19
2022-09-03T19:32:17.063Z,24.10
2022-09-03T19:35:03.041Z,24.06
2022-09-03T19:38:10.533Z,24.04
2022-09-03T19:41:04.531Z,23.98
2022-09-03T19:44:00.954Z,23.88
2022-09-03T19:46:54.232Z,23.95
2022-09-03T19:49:59.126Z,23.94
2022-09-03T19:53:11.189Z,23.94
2022-09-03T19:56:07.780Z,23.91
2022-09-03T19:58:55.701Z,23.89
2022-09-03T20:01:44.044Z,23.95
2022-09-03T20:04:32.639Z,23.88
2022-09-03T20:07:22.684Z,23.89
2022-09-03T20:10:08.593Z,23.87
2022-09-03T20:12:39.659Z,23.84
2022-09-03T20:15:08.150Z,23.76
2022-09-03T20:17:44.095Z,23.72
2022-09-03T20:20:30.861Z,23.65
2022-09-03T20:23:09.505Z,23.73
2022-09-03T20:25:45.179Z,23.70
2022-09-03T20:28:24.025Z,23.76
2022-09-03T20:31:17.505Z,23.63
2022-09-03T20:33:59.640Z,23.70
2022-09-03T20:36:42.725Z,23.70
2022-09-03T20:39:49.248Z,23.63
2022-09-03T20:42:28.680Z,23.60
2022-09-03T20:45:19.245Z,23.57
2022-09-03T20:48:05.627Z,23.61
2022-09-03T20:50:45.067Z,23.54
2022-09-03T20:53:15.181Z,23.61
2022-09-03T20:55:44.045Z,23.52
2022-09-03T20:58:38.641Z,23.57
2022-09-03T21:01:09.021Z,23.53
2022-09-03T21:03:48.064Z,23.50
2022-09-03T21:06:53.447Z,23.59
2022-09-03T21:09:39.144Z,23.57
2022-09-03T21:12:35.871Z,23.42
2022-09-03T21:15:14.710Z,23.33
2022-09-03T21:18:08.696Z,23.28
2022-09-03T21:20:55.164Z,23.23
2022-09-03T21:23:35.728Z,23.14
2022-09-03T21:26:21.492Z,23.12
2022-09-03T21:29:07.681Z,23.18
2022-09-03T21:31:42.131Z,23.01
2022-09-03T21:34:33.452Z,23.14
2022-09-03T21:37:01.246Z,23.20
2022-09-03T21:39:32.871Z,23.24
2022-09-03T21:42:18.999Z,23.20
2022-09-03T21:45:09.836Z,23.18
2022-09-03T21:47:53.483Z,23.15
2022-09-03T21:50:23.116Z,23.04
2022-09-03T21:52:55.683Z,22.96
2022-09-03T21:55:27.515Z,22.91
2022-09-03T21:58:14.065Z,22.82
2022-09-03T22:00:41.444Z,22.99
2022-09-03T22:03:10.457Z,23.03
2022-09-03T22:06:26.018Z,22.93
2022-09-03T22:09:03.469Z,22.83
2022-09-03T22:12:02.502Z,22.95
2022-09-03T22:14:48.097Z,22.91
2022-09-03T22:17:35.275Z,22.93
2022-09-03T22:20:05.134Z,22.89
2022-09-03T22:22:57.678Z,22.76
2022-09-03T22:29:28.069Z,22.77
2022-09-03T22:32:04.673Z,22.74
2022-09-03T22:34:41.444Z,22.70
2022-09-03T22:38:02.077Z,22.79
2022-09-03T22:40:52.518Z,22.87
2022-09-03T22:44:00.103Z,22.88
2022-09-03T22:50:41.506Z,22.70
2022-09-03T22:53:32.109Z,22.69
2022-09-03T22:56:11.589Z,22.68
2022-09-03T22:58:46.013Z,22.80
2022-09-03T23:01:18.593Z,22.80
2022-09-03T23:03:55.458Z,22.84
2022-09-03T23:06:26.947Z,22.86
2022-09-03T23:09:00.320Z,22.90
2022-09-03T23:11:32.535Z,22.73
2022-09-03T23:14:06.975Z,22.63
2022-09-03T23:16:44.980Z,22.66
2022-09-03T23:19:33.380Z,22.63
2022-09-03T23:22:05.680Z,22.55
2022-09-03T23:25:01.828Z,22.35
2022-09-03T23:27:38.904Z,22.26
2022-09-03T23:30:06.863Z,22.34
2022-09-03T23:32:34.680Z,22.41
2022-09-03T23:35:22.145Z,22.47
2022-09-03T23:37:59.975Z,22.31
2022-09-03T23:40:27.136Z,22.32
2022-09-03T23:43:15.598Z,22.30
2022-09-03T23:46:15.330Z,22.24
2022-09-03T23:49:05.216Z,22.26
2022-09-03T23:51:57.274Z,22.22
2022-09-03T23:54:47.670Z,22.24
2022-09-03T23:57:33.725Z,22.20
